sensor_id;sensor_type;location;lat;lon;timestamp;P1;durP1;ratioP1;P2;durP2;ratioP2
3757;SDS011;1894;51.038;13.692;2023-08-06T00:02:26;10.00;;;7.53;;
3757;SDS011;1894;51.038;13.692;2023-08-06T00:04:53;8.70;;;7.80;;
3757;SDS011;1894;51.038;13.692;2023-08-06T00:07:20;12.23;;;7.70;;
3757;SDS011;1894;51.038;13.692;2023-08-06T00:09:47;8.93;;;7.83;;
3757;SDS011;1894;51.038;13.692;2023-08-06T00:12:14;8.30;;;7.60;;
3757;SDS011;1894;51.038;13.692;2023-08-06T00:14:41;9.80;;;8.37;;
3757;SDS011;1894;51.038;13.692;2023-08-06T00:17:09;11.13;;;8.10;;
3757;SDS011;1894;51.038;13.692;2023-08-06T00:19:36;10.10;;;8.07;;
3757;SDS011;1894;51.038;13.692;2023-08-06T00:22:04;9.40;;;8.50;;
3757;SDS011;1894;51.038;13.692;2023-08-06T00:24:31;11.13;;;8.90;;
3757;SDS011;1894;51.038;13.692;2023-08-06T00:26:58;9.53;;;8.60;;
3757;SDS011;1894;51.038;13.692;2023-08-06T00:29:25;13.80;;;9.60;;
3757;SDS011;1894;51.038;13.692;2023-08-06T00:31:52;9.93;;;8.03;;
3757;SDS011;1894;51.038;13.692;2023-08-06T00:34:19;9.43;;;8.63;;
3757;SDS011;1894;51.038;13.692;2023-08-06T00:36:46;9.60;;;8.60;;
3757;SDS011;1894;51.038;13.692;2023-08-06T00:39:14;11.00;;;8.73;;
3757;SDS011;1894;51.038;13.692;2023-08-06T00:41:41;17.10;;;8.90;;
3757;SDS011;1894;51.038;13.692;2023-08-06T00:44:08;13.07;;;9.40;;
3757;SDS011;1894;51.038;13.692;2023-08-06T00:46:35;12.73;;;10.60;;
3757;SDS011;1894;51.038;13.692;2023-08-06T00:49:03;10.33;;;9.37;;
3757;SDS011;1894;51.038;13.692;2023-08-06T00:51:32;9.50;;;8.60;;
3757;SDS011;1894;51.038;13.692;2023-08-06T00:54:01;13.50;;;9.67;;
3757;SDS011;1894;51.038;13.692;2023-08-06T00:56:29;10.90;;;9.67;;
3757;SDS011;1894;51.038;13.692;2023-08-06T00:58:56;11.00;;;8.50;;
3757;SDS011;1894;51.038;13.692;2023-08-06T01:01:24;10.37;;;9.37;;
3757;SDS011;1894;51.038;13.692;2023-08-06T01:03:52;9.93;;;8.57;;
3757;SDS011;1894;51.038;13.692;2023-08-06T01:06:22;14.43;;;9.70;;
3757;SDS011;1894;51.038;13.692;2023-08-06T01:09:00;10.73;;;9.63;;
3757;SDS011;1894;51.038;13.692;2023-08-06T01:17:38;10.30;;;8.93;;
3757;SDS011;1894;51.038;13.692;2023-08-06T01:20:07;10.70;;;9.70;;
3757;SDS011;1894;51.038;13.692;2023-08-06T01:22:34;15.77;;;10.50;;
3757;SDS011;1894;51.038;13.692;2023-08-06T01:25:02;13.10;;;10.70;;
3757;SDS011;1894;51.038;13.692;2023-08-06T01:27:38;15.77;;;11.33;;
3757;SDS011;1894;51.038;13.692;2023-08-06T01:30:14;14.23;;;11.90;;
3757;SDS011;1894;51.038;13.692;2023-08-06T01:32:53;13.27;;;11.10;;
3757;SDS011;1894;51.038;13.692;2023-08-06T01:35:29;12.73;;;10.13;;
3757;SDS011;1894;51.038;13.692;2023-08-06T01:37:58;12.13;;;9.93;;
3757;SDS011;1894;51.038;13.692;2023-08-06T01:40:29;12.57;;;11.23;;
3757;SDS011;1894;51.038;13.692;2023-08-06T01:42:57;14.43;;;10.70;;
3757;SDS011;1894;51.038;13.692;2023-08-06T01:45:24;11.90;;;10.60;;
3757;SDS011;1894;51.038;13.692;2023-08-06T01:47:51;11.87;;;10.70;;
3757;SDS011;1894;51.038;13.692;2023-08-06T01:50:18;10.57;;;9.57;;
3757;SDS011;1894;51.038;13.692;2023-08-06T01:52:45;10.90;;;9.43;;
3757;SDS011;1894;51.038;13.692;2023-08-06T01:55:12;10.47;;;9.47;;
3757;SDS011;1894;51.038;13.692;2023-08-06T01:57:39;10.90;;;9.20;;
3757;SDS011;1894;51.038;13.692;2023-08-06T02:00:07;9.10;;;8.30;;
3757;SDS011;1894;51.038;13.692;2023-08-06T02:02:40;10.10;;;9.20;;
3757;SDS011;1894;51.038;13.692;2023-08-06T02:05:08;9.17;;;8.23;;
3757;SDS011;1894;51.038;13.692;2023-08-06T02:07:38;10.67;;;9.57;;
3757;SDS011;1894;51.038;13.692;2023-08-06T02:10:06;10.77;;;9.20;;
3757;SDS011;1894;51.038;13.692;2023-08-06T02:12:33;11.40;;;9.00;;
3757;SDS011;1894;51.038;13.692;2023-08-06T02:15:00;10.33;;;9.03;;
3757;SDS011;1894;51.038;13.692;2023-08-06T02:17:27;7.93;;;7.13;;
3757;SDS011;1894;51.038;13.692;2023-08-06T02:19:55;8.27;;;7.47;;
3757;SDS011;1894;51.038;13.692;2023-08-06T02:22:22;10.77;;;9.00;;
3757;SDS011;1894;51.038;13.692;2023-08-06T02:24:49;9.33;;;8.40;;
3757;SDS011;1894;51.038;13.692;2023-08-06T02:27:16;7.47;;;6.77;;
3757;SDS011;1894;51.038;13.692;2023-08-06T02:29:44;9.30;;;8.20;;
3757;SDS011;1894;51.038;13.692;2023-08-06T02:32:11;10.60;;;8.10;;
3757;SDS011;1894;51.038;13.692;2023-08-06T02:34:38;8.63;;;7.13;;
3757;SDS011;1894;51.038;13.692;2023-08-06T02:37:06;18.53;;;8.80;;
3757;SDS011;1894;51.038;13.692;2023-08-06T02:39:33;8.10;;;7.40;;
3757;SDS011;1894;51.038;13.692;2023-08-06T02:42:02;8.90;;;7.50;;
3757;SDS011;1894;51.038;13.692;2023-08-06T02:44:30;9.00;;;8.10;;
3757;SDS011;1894;51.038;13.692;2023-08-06T02:46:58;8.77;;;7.90;;
3757;SDS011;1894;51.038;13.692;2023-08-06T02:49:25;8.50;;;7.70;;
3757;SDS011;1894;51.038;13.692;2023-08-06T02:51:52;9.20;;;8.33;;
3757;SDS011;1894;51.038;13.692;2023-08-06T02:54:20;9.07;;;8.17;;
3757;SDS011;1894;51.038;13.692;2023-08-06T02:56:47;9.40;;;8.60;;
3757;SDS011;1894;51.038;13.692;2023-08-06T02:59:23;10.57;;;9.47;;
3757;SDS011;1894;51.038;13.692;2023-08-06T03:02:00;11.53;;;10.40;;
3757;SDS011;1894;51.038;13.692;2023-08-06T03:04:37;14.60;;;11.63;;
3757;SDS011;1894;51.038;13.692;2023-08-06T03:07:05;12.10;;;10.90;;
3757;SDS011;1894;51.038;13.692;2023-08-06T03:09:41;15.67;;;14.03;;
3757;SDS011;1894;51.038;13.692;2023-08-06T03:12:08;16.47;;;14.77;;
3757;SDS011;1894;51.038;13.692;2023-08-06T03:14:36;21.30;;;14.13;;
3757;SDS011;1894;51.038;13.692;2023-08-06T03:17:06;17.90;;;16.00;;
3757;SDS011;1894;51.038;13.692;2023-08-06T03:19:33;18.73;;;13.97;;
3757;SDS011;1894;51.038;13.692;2023-08-06T03:22:00;17.80;;;15.90;;
3757;SDS011;1894;51.038;13.692;2023-08-06T03:24:28;19.67;;;15.90;;
3757;SDS011;1894;51.038;13.692;2023-08-06T03:26:56;15.27;;;13.67;;
3757;SDS011;1894;51.038;13.692;2023-08-06T03:29:24;17.03;;;15.20;;
3757;SDS011;1894;51.038;13.692;2023-08-06T03:31:52;16.10;;;14.37;;
3757;SDS011;1894;51.038;13.692;2023-08-06T03:34:19;19.80;;;15.20;;
3757;SDS011;1894;51.038;13.692;2023-08-06T03:36:48;14.77;;;12.57;;
3757;SDS011;1894;51.038;13.692;2023-08-06T03:39:16;20.13;;;14.37;;
3757;SDS011;1894;51.038;13.692;2023-08-06T03:41:43;19.70;;;14.40;;
3757;SDS011;1894;51.038;13.692;2023-08-06T03:44:10;14.40;;;13.00;;
3757;SDS011;1894;51.038;13.692;2023-08-06T03:46:37;14.80;;;13.40;;
3757;SDS011;1894;51.038;13.692;2023-08-06T03:49:06;14.90;;;13.30;;
3757;SDS011;1894;51.038;13.692;2023-08-06T03:51:34;15.37;;;13.30;;
3757;SDS011;1894;51.038;13.692;2023-08-06T03:54:01;14.23;;;12.73;;
3757;SDS011;1894;51.038;13.692;2023-08-06T03:56:29;15.37;;;12.87;;
3757;SDS011;1894;51.038;13.692;2023-08-06T03:58:56;15.07;;;8.70;;
3757;SDS011;1894;51.038;13.692;2023-08-06T04:01:23;9.87;;;8.70;;
3757;SDS011;1894;51.038;13.692;2023-08-06T04:03:51;9.37;;;8.10;;
3757;SDS011;1894;51.038;13.692;2023-08-06T04:06:19;10.27;;;9.20;;
3757;SDS011;1894;51.038;13.692;2023-08-06T04:08:46;9.83;;;7.53;;
3757;SDS011;1894;51.038;13.692;2023-08-06T04:11:13;8.20;;;7.30;;
3757;SDS011;1894;51.038;13.692;2023-08-06T04:13:44;15.70;;;8.50;;
3757;SDS011;1894;51.038;13.692;2023-08-06T04:16:11;9.30;;;6.90;;
3757;SDS011;1894;51.038;13.692;2023-08-06T04:18:39;7.37;;;6.63;;
3757;SDS011;1894;51.038;13.692;2023-08-06T04:21:07;9.60;;;6.67;;
3757;SDS011;1894;51.038;13.692;2023-08-06T04:23:34;7.20;;;6.57;;
3757;SDS011;1894;51.038;13.692;2023-08-06T04:26:05;7.13;;;6.50;;
3757;SDS011;1894;51.038;13.692;2023-08-06T04:28:34;7.20;;;6.60;;
3757;SDS011;1894;51.038;13.692;2023-08-06T04:31:01;7.80;;;7.00;;
3757;SDS011;1894;51.038;13.692;2023-08-06T04:33:31;8.23;;;7.53;;
3757;SDS011;1894;51.038;13.692;2023-08-06T04:36:02;10.43;;;8.43;;
3757;SDS011;1894;51.038;13.692;2023-08-06T04:38:29;9.97;;;7.97;;
3757;SDS011;1894;51.038;13.692;2023-08-06T04:40:57;10.47;;;9.00;;
3757;SDS011;1894;51.038;13.692;2023-08-06T04:43:25;8.57;;;7.77;;
3757;SDS011;1894;51.038;13.692;2023-08-06T04:45:53;10.00;;;9.00;;
3757;SDS011;1894;51.038;13.692;2023-08-06T04:48:22;9.90;;;9.00;;
3757;SDS011;1894;51.038;13.692;2023-08-06T04:50:50;8.07;;;7.37;;
3757;SDS011;1894;51.038;13.692;2023-08-06T04:53:17;9.80;;;8.87;;
3757;SDS011;1894;51.038;13.692;2023-08-06T04:55:44;11.00;;;9.10;;
3757;SDS011;1894;51.038;13.692;2023-08-06T04:58:12;10.77;;;9.73;;
3757;SDS011;1894;51.038;13.692;2023-08-06T05:00:40;33.53;;;26.23;;
3757;SDS011;1894;51.038;13.692;2023-08-06T05:03:07;21.80;;;16.50;;
3757;SDS011;1894;51.038;13.692;2023-08-06T05:05:34;11.17;;;10.07;;
3757;SDS011;1894;51.038;13.692;2023-08-06T05:08:01;11.63;;;9.40;;
3757;SDS011;1894;51.038;13.692;2023-08-06T05:10:28;12.50;;;9.93;;
3757;SDS011;1894;51.038;13.692;2023-08-06T05:12:56;10.10;;;9.10;;
3757;SDS011;1894;51.038;13.692;2023-08-06T05:15:23;9.40;;;8.50;;
3757;SDS011;1894;51.038;13.692;2023-08-06T05:17:51;10.13;;;7.20;;
3757;SDS011;1894;51.038;13.692;2023-08-06T05:20:19;6.90;;;6.30;;
3757;SDS011;1894;51.038;13.692;2023-08-06T05:22:47;6.90;;;6.33;;
3757;SDS011;1894;51.038;13.692;2023-08-06T05:25:14;7.57;;;6.97;;
3757;SDS011;1894;51.038;13.692;2023-08-06T05:27:41;7.37;;;6.77;;
3757;SDS011;1894;51.038;13.692;2023-08-06T05:30:08;6.37;;;5.73;;
3757;SDS011;1894;51.038;13.692;2023-08-06T05:32:36;9.63;;;8.10;;
3757;SDS011;1894;51.038;13.692;2023-08-06T05:35:04;8.57;;;7.67;;
3757;SDS011;1894;51.038;13.692;2023-08-06T05:37:32;8.53;;;7.70;;
3757;SDS011;1894;51.038;13.692;2023-08-06T05:39:59;9.37;;;8.47;;
3757;SDS011;1894;51.038;13.692;2023-08-06T05:42:27;9.57;;;7.97;;
3757;SDS011;1894;51.038;13.692;2023-08-06T05:44:55;8.00;;;7.30;;
3757;SDS011;1894;51.038;13.692;2023-08-06T05:47:22;7.93;;;7.20;;
3757;SDS011;1894;51.038;13.692;2023-08-06T05:49:49;7.50;;;6.80;;
3757;SDS011;1894;51.038;13.692;2023-08-06T05:52:16;23.77;;;17.60;;
3757;SDS011;1894;51.038;13.692;2023-08-06T05:54:43;13.07;;;9.70;;
3757;SDS011;1894;51.038;13.692;2023-08-06T05:57:10;7.10;;;6.50;;
3757;SDS011;1894;51.038;13.692;2023-08-06T05:59:37;7.73;;;7.03;;
3757;SDS011;1894;51.038;13.692;2023-08-06T06:02:10;16.60;;;12.63;;
3757;SDS011;1894;51.038;13.692;2023-08-06T06:04:37;6.10;;;5.53;;
3757;SDS011;1894;51.038;13.692;2023-08-06T06:07:04;5.97;;;4.03;;
3757;SDS011;1894;51.038;13.692;2023-08-06T06:09:31;4.93;;;4.40;;
3757;SDS011;1894;51.038;13.692;2023-08-06T06:11:58;4.30;;;3.90;;
3757;SDS011;1894;51.038;13.692;2023-08-06T06:14:25;6.63;;;4.50;;
3757;SDS011;1894;51.038;13.692;2023-08-06T06:16:53;7.97;;;5.90;;
3757;SDS011;1894;51.038;13.692;2023-08-06T06:19:20;8.47;;;7.47;;
3757;SDS011;1894;51.038;13.692;2023-08-06T06:21:47;7.90;;;6.97;;
3757;SDS011;1894;51.038;13.692;2023-08-06T06:24:14;5.70;;;5.20;;
3757;SDS011;1894;51.038;13.692;2023-08-06T06:26:41;6.90;;;6.17;;
3757;SDS011;1894;51.038;13.692;2023-08-06T06:29:09;3.87;;;3.07;;
3757;SDS011;1894;51.038;13.692;2023-08-06T06:31:36;3.87;;;3.50;;
3757;SDS011;1894;51.038;13.692;2023-08-06T06:34:03;3.50;;;3.17;;
3757;SDS011;1894;51.038;13.692;2023-08-06T06:36:30;3.67;;;3.37;;
3757;SDS011;1894;51.038;13.692;2023-08-06T06:38:57;2.87;;;2.67;;
3757;SDS011;1894;51.038;13.692;2023-08-06T06:41:24;4.60;;;4.20;;
3757;SDS011;1894;51.038;13.692;2023-08-06T06:43:56;3.50;;;3.13;;
3757;SDS011;1894;51.038;13.692;2023-08-06T06:46:25;7.43;;;5.73;;
3757;SDS011;1894;51.038;13.692;2023-08-06T06:48:55;5.10;;;3.70;;
3757;SDS011;1894;51.038;13.692;2023-08-06T06:51:22;4.33;;;3.83;;
3757;SDS011;1894;51.038;13.692;2023-08-06T06:53:50;6.53;;;3.77;;
3757;SDS011;1894;51.038;13.692;2023-08-06T06:56:17;4.77;;;3.43;;
3757;SDS011;1894;51.038;13.692;2023-08-06T06:58:44;4.00;;;3.60;;
3757;SDS011;1894;51.038;13.692;2023-08-06T07:01:11;5.33;;;4.40;;
3757;SDS011;1894;51.038;13.692;2023-08-06T07:03:39;5.23;;;4.73;;
3757;SDS011;1894;51.038;13.692;2023-08-06T07:06:06;5.33;;;4.33;;
3757;SDS011;1894;51.038;13.692;2023-08-06T07:08:33;9.10;;;5.23;;
3757;SDS011;1894;51.038;13.692;2023-08-06T07:11:01;5.77;;;4.83;;
3757;SDS011;1894;51.038;13.692;2023-08-06T07:13:30;5.70;;;5.10;;
3757;SDS011;1894;51.038;13.692;2023-08-06T07:15:58;5.40;;;5.00;;
3757;SDS011;1894;51.038;13.692;2023-08-06T07:18:25;5.90;;;4.70;;
3757;SDS011;1894;51.038;13.692;2023-08-06T07:20:53;6.40;;;5.40;;
3757;SDS011;1894;51.038;13.692;2023-08-06T07:23:22;4.87;;;4.47;;
3757;SDS011;1894;51.038;13.692;2023-08-06T07:25:51;10.83;;;5.07;;
3757;SDS011;1894;51.038;13.692;2023-08-06T07:28:18;4.90;;;4.50;;
3757;SDS011;1894;51.038;13.692;2023-08-06T07:30:46;7.10;;;4.30;;
3757;SDS011;1894;51.038;13.692;2023-08-06T07:33:14;6.97;;;4.17;;
3757;SDS011;1894;51.038;13.692;2023-08-06T07:35:41;6.27;;;4.20;;
3757;SDS011;1894;51.038;13.692;2023-08-06T07:38:09;4.50;;;3.67;;
3757;SDS011;1894;51.038;13.692;2023-08-06T07:40:37;8.70;;;4.13;;
3757;SDS011;1894;51.038;13.692;2023-08-06T07:43:05;4.23;;;3.80;;
3757;SDS011;1894;51.038;13.692;2023-08-06T07:45:32;5.90;;;3.67;;
3757;SDS011;1894;51.038;13.692;2023-08-06T07:48:03;3.53;;;3.20;;
3757;SDS011;1894;51.038;13.692;2023-08-06T07:50:31;4.73;;;2.77;;
3757;SDS011;1894;51.038;13.692;2023-08-06T07:52:58;3.93;;;3.13;;
3757;SDS011;1894;51.038;13.692;2023-08-06T07:55:26;5.90;;;3.70;;
3757;SDS011;1894;51.038;13.692;2023-08-06T07:57:53;2.90;;;2.60;;
3757;SDS011;1894;51.038;13.692;2023-08-06T08:00:20;2.70;;;2.50;;
3757;SDS011;1894;51.038;13.692;2023-08-06T08:02:48;3.33;;;2.90;;
3757;SDS011;1894;51.038;13.692;2023-08-06T08:05:15;4.23;;;2.70;;
3757;SDS011;1894;51.038;13.692;2023-08-06T08:07:42;3.27;;;2.33;;
3757;SDS011;1894;51.038;13.692;2023-08-06T08:10:10;2.77;;;2.57;;
3757;SDS011;1894;51.038;13.692;2023-08-06T08:12:38;3.37;;;2.50;;
3757;SDS011;1894;51.038;13.692;2023-08-06T08:15:05;2.77;;;2.50;;
3757;SDS011;1894;51.038;13.692;2023-08-06T08:17:33;2.00;;;1.80;;
3757;SDS011;1894;51.038;13.692;2023-08-06T08:20:01;5.10;;;3.70;;
3757;SDS011;1894;51.038;13.692;2023-08-06T08:22:29;3.90;;;2.20;;
3757;SDS011;1894;51.038;13.692;2023-08-06T08:24:56;1.97;;;1.87;;
3757;SDS011;1894;51.038;13.692;2023-08-06T08:27:23;1.93;;;1.80;;
3757;SDS011;1894;51.038;13.692;2023-08-06T08:29:50;3.37;;;1.83;;
3757;SDS011;1894;51.038;13.692;2023-08-06T08:32:17;3.73;;;2.50;;
3757;SDS011;1894;51.038;13.692;2023-08-06T08:34:45;2.57;;;1.90;;
3757;SDS011;1894;51.038;13.692;2023-08-06T08:37:12;2.30;;;1.83;;
3757;SDS011;1894;51.038;13.692;2023-08-06T08:39:40;3.27;;;1.40;;
3757;SDS011;1894;51.038;13.692;2023-08-06T08:42:07;1.63;;;1.53;;
3757;SDS011;1894;51.038;13.692;2023-08-06T08:44:36;1.60;;;1.33;;
3757;SDS011;1894;51.038;13.692;2023-08-06T08:47:08;1.93;;;1.70;;
3757;SDS011;1894;51.038;13.692;2023-08-06T08:49:37;2.73;;;1.37;;
3757;SDS011;1894;51.038;13.692;2023-08-06T08:52:05;1.43;;;1.10;;
3757;SDS011;1894;51.038;13.692;2023-08-06T08:54:33;1.33;;;1.20;;
3757;SDS011;1894;51.038;13.692;2023-08-06T08:57:00;2.40;;;1.50;;
3757;SDS011;1894;51.038;13.692;2023-08-06T08:59:28;1.27;;;1.17;;
3757;SDS011;1894;51.038;13.692;2023-08-06T09:01:56;1.57;;;1.43;;
3757;SDS011;1894;51.038;13.692;2023-08-06T09:04:24;1.37;;;1.27;;
3757;SDS011;1894;51.038;13.692;2023-08-06T09:07:00;3.00;;;1.40;;
3757;SDS011;1894;51.038;13.692;2023-08-06T09:09:30;1.83;;;1.57;;
3757;SDS011;1894;51.038;13.692;2023-08-06T09:12:00;2.33;;;1.97;;
3757;SDS011;1894;51.038;13.692;2023-08-06T09:14:29;5.13;;;1.97;;
3757;SDS011;1894;51.038;13.692;2023-08-06T09:16:59;3.40;;;2.30;;
3757;SDS011;1894;51.038;13.692;2023-08-06T09:19:32;2.10;;;1.90;;
3757;SDS011;1894;51.038;13.692;2023-08-06T09:22:00;2.33;;;2.13;;
3757;SDS011;1894;51.038;13.692;2023-08-06T09:24:27;3.60;;;2.50;;
3757;SDS011;1894;51.038;13.692;2023-08-06T09:26:54;4.30;;;1.87;;
3757;SDS011;1894;51.038;13.692;2023-08-06T09:29:22;3.33;;;2.70;;
3757;SDS011;1894;51.038;13.692;2023-08-06T09:31:53;4.33;;;2.07;;
3757;SDS011;1894;51.038;13.692;2023-08-06T09:34:21;2.63;;;2.43;;
3757;SDS011;1894;51.038;13.692;2023-08-06T09:36:52;3.27;;;2.77;;
3757;SDS011;1894;51.038;13.692;2023-08-06T09:39:21;3.00;;;2.70;;
3757;SDS011;1894;51.038;13.692;2023-08-06T09:41:59;3.00;;;2.70;;
3757;SDS011;1894;51.038;13.692;2023-08-06T09:44:32;3.57;;;3.27;;
3757;SDS011;1894;51.038;13.692;2023-08-06T09:47:01;4.20;;;2.30;;
3757;SDS011;1894;51.038;13.692;2023-08-06T09:52:01;2.33;;;2.17;;
3757;SDS011;1894;51.038;13.692;2023-08-06T09:54:29;2.20;;;2.00;;
3757;SDS011;1894;51.038;13.692;2023-08-06T09:56:57;2.23;;;2.03;;
3757;SDS011;1894;51.038;13.692;2023-08-06T09:59:25;2.00;;;1.80;;
3757;SDS011;1894;51.038;13.692;2023-08-06T10:01:53;7.53;;;2.17;;
3757;SDS011;1894;51.038;13.692;2023-08-06T10:04:24;4.07;;;3.07;;
3757;SDS011;1894;51.038;13.692;2023-08-06T10:07:03;2.17;;;1.97;;
3757;SDS011;1894;51.038;13.692;2023-08-06T10:09:31;4.50;;;2.00;;
3757;SDS011;1894;51.038;13.692;2023-08-06T10:11:58;3.20;;;2.20;;
3757;SDS011;1894;51.038;13.692;2023-08-06T10:14:32;2.33;;;2.20;;
3757;SDS011;1894;51.038;13.692;2023-08-06T10:17:02;3.37;;;2.10;;
3757;SDS011;1894;51.038;13.692;2023-08-06T10:19:30;2.33;;;1.80;;
3757;SDS011;1894;51.038;13.692;2023-08-06T10:22:08;2.30;;;1.90;;
3757;SDS011;1894;51.038;13.692;2023-08-06T10:24:53;2.03;;;1.83;;
3757;SDS011;1894;51.038;13.692;2023-08-06T10:27:36;4.10;;;3.50;;
3757;SDS011;1894;51.038;13.692;2023-08-06T10:32:56;2.63;;;1.90;;
3757;SDS011;1894;51.038;13.692;2023-08-06T10:35:31;2.97;;;2.67;;
3757;SDS011;1894;51.038;13.692;2023-08-06T10:38:14;2.10;;;1.90;;
3757;SDS011;1894;51.038;13.692;2023-08-06T10:45:57;5.63;;;2.13;;
3757;SDS011;1894;51.038;13.692;2023-08-06T10:48:39;3.53;;;1.87;;
3757;SDS011;1894;51.038;13.692;2023-08-06T10:51:10;1.80;;;1.70;;
3757;SDS011;1894;51.038;13.692;2023-08-06T10:53:46;2.40;;;1.60;;
3757;SDS011;1894;51.038;13.692;2023-08-06T10:56:19;9.83;;;6.50;;
3757;SDS011;1894;51.038;13.692;2023-08-06T10:58:50;5.80;;;4.50;;
3757;SDS011;1894;51.038;13.692;2023-08-06T11:01:19;5.03;;;1.83;;
3757;SDS011;1894;51.038;13.692;2023-08-06T11:03:49;5.70;;;2.30;;
3757;SDS011;1894;51.038;13.692;2023-08-06T11:06:19;3.07;;;1.63;;
3757;SDS011;1894;51.038;13.692;2023-08-06T11:08:50;2.17;;;1.50;;
3757;SDS011;1894;51.038;13.692;2023-08-06T11:11:20;2.60;;;1.90;;
3757;SDS011;1894;51.038;13.692;2023-08-06T11:13:50;2.40;;;2.20;;
3757;SDS011;1894;51.038;13.692;2023-08-06T11:16:19;4.93;;;2.10;;
3757;SDS011;1894;51.038;13.692;2023-08-06T11:18:54;2.33;;;2.13;;
3757;SDS011;1894;51.038;13.692;2023-08-06T11:21:23;1.97;;;1.80;;
3757;SDS011;1894;51.038;13.692;2023-08-06T11:23:53;2.03;;;1.83;;
3757;SDS011;1894;51.038;13.692;2023-08-06T11:26:20;1.90;;;1.70;;
3757;SDS011;1894;51.038;13.692;2023-08-06T11:28:50;2.13;;;1.70;;
3757;SDS011;1894;51.038;13.692;2023-08-06T11:31:20;2.37;;;1.90;;
3757;SDS011;1894;51.038;13.692;2023-08-06T11:33:52;2.80;;;1.40;;
3757;SDS011;1894;51.038;13.692;2023-08-06T11:36:31;1.90;;;1.80;;
3757;SDS011;1894;51.038;13.692;2023-08-06T11:39:07;2.70;;;1.87;;
3757;SDS011;1894;51.038;13.692;2023-08-06T11:41:35;2.70;;;1.90;;
3757;SDS011;1894;51.038;13.692;2023-08-06T11:44:04;2.57;;;1.93;;
3757;SDS011;1894;51.038;13.692;2023-08-06T11:46:53;3.33;;;2.23;;
3757;SDS011;1894;51.038;13.692;2023-08-06T11:52:18;2.43;;;2.23;;
3757;SDS011;1894;51.038;13.692;2023-08-06T11:57:34;2.30;;;1.87;;
3757;SDS011;1894;51.038;13.692;2023-08-06T12:00:05;4.00;;;1.70;;
3757;SDS011;1894;51.038;13.692;2023-08-06T12:02:41;2.00;;;1.90;;
3757;SDS011;1894;51.038;13.692;2023-08-06T12:05:10;5.30;;;2.37;;
3757;SDS011;1894;51.038;13.692;2023-08-06T12:07:43;3.40;;;2.20;;
3757;SDS011;1894;51.038;13.692;2023-08-06T12:10:13;2.03;;;1.80;;
3757;SDS011;1894;51.038;13.692;2023-08-06T12:12:41;2.30;;;2.10;;
3757;SDS011;1894;51.038;13.692;2023-08-06T12:15:09;2.00;;;1.90;;
3757;SDS011;1894;51.038;13.692;2023-08-06T12:17:37;2.47;;;2.20;;
3757;SDS011;1894;51.038;13.692;2023-08-06T12:20:05;3.97;;;2.03;;
3757;SDS011;1894;51.038;13.692;2023-08-06T12:22:34;2.50;;;2.27;;
3757;SDS011;1894;51.038;13.692;2023-08-06T12:25:03;3.33;;;1.87;;
3757;SDS011;1894;51.038;13.692;2023-08-06T12:27:35;2.03;;;1.90;;
3757;SDS011;1894;51.038;13.692;2023-08-06T12:30:03;2.37;;;2.07;;
3757;SDS011;1894;51.038;13.692;2023-08-06T12:32:31;2.80;;;2.00;;
3757;SDS011;1894;51.038;13.692;2023-08-06T12:35:00;2.17;;;1.97;;
3757;SDS011;1894;51.038;13.692;2023-08-06T12:37:28;2.03;;;1.67;;
3757;SDS011;1894;51.038;13.692;2023-08-06T12:39:55;3.30;;;1.37;;
3757;SDS011;1894;51.038;13.692;2023-08-06T12:42:22;2.03;;;1.87;;
3757;SDS011;1894;51.038;13.692;2023-08-06T12:44:50;3.00;;;1.90;;
3757;SDS011;1894;51.038;13.692;2023-08-06T12:47:18;2.00;;;1.53;;
3757;SDS011;1894;51.038;13.692;2023-08-06T12:49:46;2.17;;;1.97;;
3757;SDS011;1894;51.038;13.692;2023-08-06T12:52:14;3.00;;;2.10;;
3757;SDS011;1894;51.038;13.692;2023-08-06T12:54:41;7.20;;;1.70;;
3757;SDS011;1894;51.038;13.692;2023-08-06T12:57:09;10.30;;;7.30;;
3757;SDS011;1894;51.038;13.692;2023-08-06T12:59:36;1.70;;;1.60;;
3757;SDS011;1894;51.038;13.692;2023-08-06T13:02:04;2.30;;;1.67;;
3757;SDS011;1894;51.038;13.692;2023-08-06T13:04:31;2.00;;;1.67;;
3757;SDS011;1894;51.038;13.692;2023-08-06T13:07:01;5.10;;;1.77;;
3757;SDS011;1894;51.038;13.692;2023-08-06T13:09:28;3.50;;;1.63;;
3757;SDS011;1894;51.038;13.692;2023-08-06T13:11:58;2.10;;;1.50;;
3757;SDS011;1894;51.038;13.692;2023-08-06T13:14:32;2.77;;;1.27;;
3757;SDS011;1894;51.038;13.692;2023-08-06T13:16:59;3.07;;;1.27;;
3757;SDS011;1894;51.038;13.692;2023-08-06T13:19:27;6.53;;;2.80;;
3757;SDS011;1894;51.038;13.692;2023-08-06T13:21:59;2.17;;;1.37;;
3757;SDS011;1894;51.038;13.692;2023-08-06T13:24:30;3.20;;;2.17;;
3757;SDS011;1894;51.038;13.692;2023-08-06T13:26:57;2.70;;;1.17;;
3757;SDS011;1894;51.038;13.692;2023-08-06T13:29:25;3.10;;;1.33;;
3757;SDS011;1894;51.038;13.692;2023-08-06T13:31:53;1.43;;;1.33;;
3757;SDS011;1894;51.038;13.692;2023-08-06T13:34:20;1.60;;;1.50;;
3757;SDS011;1894;51.038;13.692;2023-08-06T13:36:48;2.83;;;1.27;;
3757;SDS011;1894;51.038;13.692;2023-08-06T13:39:16;1.40;;;1.10;;
3757;SDS011;1894;51.038;13.692;2023-08-06T13:41:43;1.20;;;1.10;;
3757;SDS011;1894;51.038;13.692;2023-08-06T13:44:11;1.50;;;1.40;;
3757;SDS011;1894;51.038;13.692;2023-08-06T13:46:42;3.70;;;2.70;;
3757;SDS011;1894;51.038;13.692;2023-08-06T13:49:09;1.87;;;1.50;;
3757;SDS011;1894;51.038;13.692;2023-08-06T13:51:37;2.63;;;1.97;;
3757;SDS011;1894;51.038;13.692;2023-08-06T13:54:04;4.77;;;1.37;;
3757;SDS011;1894;51.038;13.692;2023-08-06T13:56:32;1.00;;;0.90;;
3757;SDS011;1894;51.038;13.692;2023-08-06T13:59:01;2.73;;;1.13;;
3757;SDS011;1894;51.038;13.692;2023-08-06T14:01:28;2.70;;;1.40;;
3757;SDS011;1894;51.038;13.692;2023-08-06T14:04:13;2.33;;;1.50;;
3757;SDS011;1894;51.038;13.692;2023-08-06T14:06:40;4.07;;;1.37;;
3757;SDS011;1894;51.038;13.692;2023-08-06T14:09:07;3.13;;;1.57;;
3757;SDS011;1894;51.038;13.692;2023-08-06T14:11:34;1.10;;;0.93;;
3757;SDS011;1894;51.038;13.692;2023-08-06T14:14:01;1.87;;;1.47;;
3757;SDS011;1894;51.038;13.692;2023-08-06T14:16:29;1.60;;;1.50;;
3757;SDS011;1894;51.038;13.692;2023-08-06T14:18:57;3.33;;;1.70;;
3757;SDS011;1894;51.038;13.692;2023-08-06T14:21:24;3.70;;;2.20;;
3757;SDS011;1894;51.038;13.692;2023-08-06T14:23:51;1.67;;;1.57;;
3757;SDS011;1894;51.038;13.692;2023-08-06T14:26:18;6.30;;;2.60;;
3757;SDS011;1894;51.038;13.692;2023-08-06T14:28:46;4.97;;;2.40;;
3757;SDS011;1894;51.038;13.692;2023-08-06T14:31:13;3.67;;;1.57;;
3757;SDS011;1894;51.038;13.692;2023-08-06T14:33:40;14.03;;;10.33;;
3757;SDS011;1894;51.038;13.692;2023-08-06T14:36:07;2.27;;;1.60;;
3757;SDS011;1894;51.038;13.692;2023-08-06T14:38:34;1.90;;;1.70;;
3757;SDS011;1894;51.038;13.692;2023-08-06T14:41:19;4.17;;;3.43;;
3757;SDS011;1894;51.038;13.692;2023-08-06T14:43:47;2.80;;;2.47;;
3757;SDS011;1894;51.038;13.692;2023-08-06T14:46:14;2.73;;;2.03;;
3757;SDS011;1894;51.038;13.692;2023-08-06T14:48:41;2.40;;;2.20;;
3757;SDS011;1894;51.038;13.692;2023-08-06T14:51:08;2.40;;;2.20;;
3757;SDS011;1894;51.038;13.692;2023-08-06T14:53:35;1.67;;;1.57;;
3757;SDS011;1894;51.038;13.692;2023-08-06T14:56:03;4.50;;;2.33;;
3757;SDS011;1894;51.038;13.692;2023-08-06T14:58:30;1.90;;;1.70;;
3757;SDS011;1894;51.038;13.692;2023-08-06T15:00:57;9.53;;;2.07;;
3757;SDS011;1894;51.038;13.692;2023-08-06T15:03:24;1.70;;;1.30;;
3757;SDS011;1894;51.038;13.692;2023-08-06T15:05:51;1.40;;;1.30;;
3757;SDS011;1894;51.038;13.692;2023-08-06T15:08:18;3.17;;;1.80;;
3757;SDS011;1894;51.038;13.692;2023-08-06T15:10:58;1.70;;;1.57;;
3757;SDS011;1894;51.038;13.692;2023-08-06T15:13:29;6.20;;;4.10;;
3757;SDS011;1894;51.038;13.692;2023-08-06T15:15:57;1.50;;;1.40;;
3757;SDS011;1894;51.038;13.692;2023-08-06T15:18:24;1.20;;;1.07;;
3757;SDS011;1894;51.038;13.692;2023-08-06T15:20:51;1.83;;;1.73;;
3757;SDS011;1894;51.038;13.692;2023-08-06T15:23:19;1.40;;;1.30;;
3757;SDS011;1894;51.038;13.692;2023-08-06T15:25:47;1.77;;;1.67;;
3757;SDS011;1894;51.038;13.692;2023-08-06T15:28:17;3.00;;;1.70;;
3757;SDS011;1894;51.038;13.692;2023-08-06T15:30:48;2.27;;;1.60;;